Time;durP1;ratioP1;P1;durP2;ratioP2;P2;SDS_P1;SDS_P2;PMS_P1;PMS_P2;Temp;Humidity;BMP_temperature;BMP_pressure;BME280_temperature;BME280_humidity;BME280_pressure;Samples;Min_cycle;Max_cycle;Signal;HPM_P1;HPM_P2
2020/12/01 00:00:43;;;;;;;19.33;11.95;;;1.20;99.90;;;;;;5074588;28;20339;-84
2020/12/01 00:03:10;;;;;;;17.00;10.95;;;1.20;99.90;;;;;;5075729;28;20281;-84
2020/12/01 00:05:36;;;;;;;17.23;10.82;;;1.20;99.90;;;;;;5075560;28;20323;-84
2020/12/01 00:08:03;;;;;;;29.25;13.43;;;1.20;99.90;;;;;;5075504;28;20251;-84
2020/12/01 00:10:34;;;;;;;24.00;13.10;;;1.10;99.90;;;;;;5075676;28;20633;-83
2020/12/01 00:13:01;;;;;;;26.23;13.10;;;1.10;99.90;;;;;;5074108;28;20284;-84
2020/12/01 00:15:27;;;;;;;18.23;12.43;;;1.10;99.90;;;;;;5074319;28;20542;-85
2020/12/01 00:17:54;;;;;;;25.15;13.30;;;1.10;99.90;;;;;;5075413;28;20635;-88
2020/12/01 00:20:22;;;;;;;30.38;15.77;;;1.10;99.90;;;;;;5075421;28;20291;-88
2020/12/01 00:22:49;;;;;;;22.52;13.15;;;1.10;99.90;;;;;;5075505;28;20638;-87
2020/12/01 00:25:18;;;;;;;20.63;13.48;;;1.10;99.90;;;;;;5075209;28;20242;-89
2020/12/01 00:27:46;;;;;;;23.02;12.45;;;1.10;99.90;;;;;;5076839;28;20208;-93
2020/12/01 00:30:14;;;;;;;22.02;13.10;;;1.00;99.90;;;;;;5076295;28;20240;-88
2020/12/01 00:32:41;;;;;;;20.67;12.40;;;1.00;99.90;;;;;;5075989;28;20198;-89
2020/12/01 00:35:08;;;;;;;18.15;11.55;;;1.50;99.90;;;;;;5076308;28;20255;-89
2020/12/01 00:37:36;;;;;;;22.02;12.00;;;0.90;99.90;;;;;;5071764;28;20206;-90
2020/12/01 00:40:04;;;;;;;24.10;14.27;;;1.00;99.90;;;;;;5055060;28;20206;-90
2020/12/01 00:42:31;;;;;;;30.20;14.55;;;1.10;99.90;;;;;;5055355;28;20240;-90
2020/12/01 00:44:58;;;;;;;29.75;12.90;;;1.30;99.90;;;;;;5054435;28;20226;-89
2020/12/01 00:47:24;;;;;;;23.80;13.10;;;3.10;99.90;;;;;;5061753;28;20614;-88
2020/12/01 00:49:51;;;;;;;20.55;12.43;;;1.00;99.90;;;;;;5075479;28;20208;-88
2020/12/01 00:52:18;;;;;;;19.85;12.05;;;1.10;99.90;;;;;;5089577;28;20186;-89
2020/12/01 00:54:44;;;;;;;21.85;13.52;;;1.10;99.90;;;;;;5097787;28;20209;-88
2020/12/01 00:57:10;;;;;;;24.38;13.88;;;1.10;99.90;;;;;;5082981;28;20234;-88
2020/12/01 00:59:38;;;;;;;17.70;12.65;;;1.10;99.90;;;;;;5059928;28;20547;-88
2020/12/01 01:02:05;;;;;;;27.90;14.15;;;1.20;99.90;;;;;;5059201;28;20202;-89
2020/12/01 01:04:31;;;;;;;22.38;13.30;;;1.30;99.90;;;;;;5057913;28;20264;-92
2020/12/01 01:09:41;;;;;;;25.83;13.05;;;1.30;99.90;;;;;;5019047;28;20689;-89
2020/12/01 01:12:08;;;;;;;24.10;12.93;;;1.30;99.90;;;;;;5051636;28;20202;-86
2020/12/01 01:14:34;;;;;;;26.27;13.65;;;1.30;99.90;;;;;;5053721;28;20298;-86
2020/12/01 01:17:02;;;;;;;23.58;13.20;;;1.40;99.90;;;;;;5055344;28;20245;-89
2020/12/01 01:19:28;;;;;;;23.10;12.85;;;1.40;99.90;;;;;;5055060;28;20642;-88
2020/12/01 01:21:55;;;;;;;22.98;12.02;;;1.50;99.90;;;;;;5054401;28;20292;-86
2020/12/01 01:24:21;;;;;;;22.90;12.68;;;1.50;99.90;;;;;;5054508;28;20236;-83
2020/12/01 01:26:49;;;;;;;22.83;12.30;;;1.50;99.90;;;;;;5054301;28;20265;-85
2020/12/01 01:29:16;;;;;;;21.70;12.93;;;1.60;99.90;;;;;;5053262;28;20212;-85
2020/12/01 01:31:42;;;;;;;23.88;12.88;;;1.60;99.90;;;;;;5054329;28;20300;-86
2020/12/01 01:34:10;;;;;;;17.65;11.73;;;1.70;99.90;;;;;;5060136;28;20240;-91
2020/12/01 01:36:36;;;;;;;23.20;14.18;;;1.70;99.90;;;;;;5074409;28;20655;-89
2020/12/01 01:39:06;;;;;;;21.92;12.55;;;1.70;99.90;;;;;;5074290;28;20301;-90
2020/12/01 01:41:34;;;;;;;27.95;13.05;;;1.80;99.90;;;;;;5073223;28;20297;-88
2020/12/01 01:44:00;;;;;;;24.88;10.80;;;1.80;99.90;;;;;;5073382;28;20285;-88
2020/12/01 01:46:38;;;;;;;21.67;11.05;;;3.80;99.90;;;;;;5073228;28;20297;-87
2020/12/01 01:49:10;;;;;;;21.63;11.32;;;1.80;99.90;;;;;;5072217;28;20201;-89
2020/12/01 01:51:38;;;;;;;18.25;11.02;;;1.80;99.90;;;;;;5073654;28;20668;-88
2020/12/01 01:54:07;;;;;;;18.15;10.80;;;2.80;99.90;;;;;;5072387;28;20610;-87
2020/12/01 01:56:38;;;;;;;20.58;14.48;;;1.70;99.90;;;;;;5074391;28;20284;-89
2020/12/01 01:59:14;;;;;;;22.52;12.38;;;1.70;99.90;;;;;;5078948;28;20208;-93
2020/12/01 02:05:20;;;;;;;24.08;12.23;;;1.70;99.90;;;;;;5006581;22;20375;-94
2020/12/01 02:07:47;;;;;;;21.92;13.02;;;1.70;99.90;;;;;;5067686;28;20202;-90
2020/12/01 02:10:14;;;;;;;22.55;11.05;;;1.70;99.90;;;;;;5066035;28;20198;-90
2020/12/01 02:12:43;;;;;;;22.63;14.20;;;1.70;99.90;;;;;;5066123;28;20233;-89
2020/12/01 02:15:11;;;;;;;23.00;11.15;;;1.60;99.90;;;;;;5067279;28;20248;-89
2020/12/01 02:17:38;;;;;;;23.92;12.05;;;1.60;99.90;;;;;;5050699;28;20674;-88
2020/12/01 02:20:08;;;;;;;26.08;13.50;;;1.70;99.90;;;;;;5038160;28;20289;-89
2020/12/01 02:22:35;;;;;;;26.75;13.25;;;1.70;99.90;;;;;;5033822;28;20242;-86
2020/12/01 02:25:04;;;;;;;22.30;13.77;;;1.60;99.90;;;;;;5033121;28;20321;-86
2020/12/01 02:27:31;;;;;;;18.17;12.15;;;1.60;99.90;;;;;;5033200;28;20209;-88
2020/12/01 02:29:59;;;;;;;20.00;11.90;;;1.60;99.90;;;;;;5035581;28;20212;-89
2020/12/01 02:32:27;;;;;;;19.42;11.88;;;1.60;99.90;;;;;;5053189;28;20217;-88
2020/12/01 02:34:57;;;;;;;19.45;13.35;;;1.60;99.90;;;;;;5053155;28;20206;-89
2020/12/01 02:37:26;;;;;;;26.67;10.88;;;1.70;99.90;;;;;;5051983;28;20209;-89
2020/12/01 02:39:52;;;;;;;22.67;14.38;;;1.70;99.90;;;;;;5052919;28;20298;-89
2020/12/01 02:42:22;;;;;;;18.88;12.40;;;1.70;99.90;;;;;;5053113;28;20206;-89
2020/12/01 02:44:50;;;;;;;25.15;13.23;;;1.70;99.90;;;;;;5051107;28;20232;-87
2020/12/01 02:47:16;;;;;;;31.92;12.90;;;1.70;99.90;;;;;;5052741;28;20294;-85
2020/12/01 02:49:43;;;;;;;23.30;12.95;;;1.70;99.90;;;;;;5052802;28;20276;-92
2020/12/01 02:52:09;;;;;;;23.23;12.98;;;1.70;99.90;;;;;;5059202;28;20285;-94
2020/12/01 02:54:35;;;;;;;23.60;11.30;;;1.70;99.90;;;;;;5052865;28;20206;-89
2020/12/01 02:57:02;;;;;;;26.83;11.10;;;1.70;99.90;;;;;;5051934;28;20232;-88
2020/12/01 02:59:28;;;;;;;19.17;10.07;;;1.70;99.90;;;;;;5051390;28;20301;-86
2020/12/01 03:01:55;;;;;;;24.67;11.98;;;1.70;99.90;;;;;;5052422;28;20297;-84
2020/12/01 03:04:22;;;;;;;19.52;12.35;;;1.70;99.90;;;;;;5051753;28;20256;-84
2020/12/01 03:06:48;;;;;;;26.25;13.07;;;1.70;99.90;;;;;;5052351;28;20234;-84
2020/12/01 03:09:18;;;;;;;20.02;10.60;;;1.80;99.90;;;;;;5052641;28;20230;-82
2020/12/01 03:11:44;;;;;;;18.60;13.23;;;1.80;99.90;;;;;;5052146;28;20676;-83
2020/12/01 03:14:12;;;;;;;23.63;12.63;;;1.80;99.90;;;;;;5051165;28;20198;-83
2020/12/01 03:16:38;;;;;;;22.13;10.25;;;1.80;99.90;;;;;;5052312;28;20297;-82
2020/12/01 03:19:05;;;;;;;18.38;12.15;;;1.80;99.90;;;;;;5053431;28;20292;-83
2020/12/01 03:21:32;;;;;;;21.70;11.13;;;1.80;99.90;;;;;;5056503;28;20198;-83
2020/12/01 03:23:58;;;;;;;13.48;8.77;;;1.80;99.90;;;;;;5056471;28;20202;-82
2020/12/01 03:26:25;;;;;;;18.65;10.05;;;1.90;99.90;;;;;;5055799;28;20237;-83
2020/12/01 03:28:51;;;;;;;16.73;9.70;;;1.90;99.90;;;;;;5056593;28;20216;-83
2020/12/01 03:31:20;;;;;;;12.95;9.32;;;1.90;99.90;;;;;;5054448;28;20198;-83
2020/12/01 03:33:47;;;;;;;18.55;8.98;;;2.00;99.90;;;;;;5056438;28;20206;-83
2020/12/01 03:36:15;;;;;;;16.45;10.30;;;2.00;99.90;;;;;;5056304;28;20648;-84
2020/12/01 03:38:41;;;;;;;18.40;8.52;;;2.00;99.90;;;;;;5056233;28;20384;-85
2020/12/01 03:41:07;;;;;;;12.05;7.38;;;2.10;99.90;;;;;;5055850;28;20212;-86
2020/12/01 03:43:34;;;;;;;14.27;8.55;;;2.10;99.90;;;;;;5056170;28;20208;-90
2020/12/01 03:46:01;;;;;;;14.32;8.35;;;2.10;99.90;;;;;;5055650;28;20236;-94
2020/12/01 03:51:21;;;;;;;16.58;7.90;;;2.20;99.90;;;;;;5085548;28;20211;-93
2020/12/01 03:53:48;;;;;;;14.50;7.80;;;2.10;99.90;;;;;;5076460;28;20205;-91
2020/12/01 03:56:19;;;;;;;16.42;8.60;;;2.20;99.90;;;;;;5077458;28;20258;-91
2020/12/01 03:58:58;;;;;;;10.60;8.82;;;2.20;99.90;;;;;;5078191;28;20727;-92
2020/12/01 04:01:24;;;;;;;12.65;7.65;;;2.20;99.90;;;;;;5079355;28;20225;-93
2020/12/01 04:03:51;;;;;;;11.60;7.80;;;2.20;99.90;;;;;;5077754;28;20201;-92
2020/12/01 04:06:17;;;;;;;17.65;7.68;;;2.30;99.90;;;;;;5074747;28;20719;-87
2020/12/01 04:08:44;;;;;;;16.55;8.38;;;2.30;99.90;;;;;;5075514;28;20628;-86
2020/12/01 04:11:11;;;;;;;13.35;6.90;;;2.30;99.90;;;;;;5075649;28;20205;-87
2020/12/01 04:13:37;;;;;;;14.20;7.25;;;2.30;99.90;;;;;;5075444;28;20208;-86
2020/12/01 04:16:04;;;;;;;11.13;5.97;;;2.40;99.90;;;;;;5074277;28;20201;-89
2020/12/01 04:18:31;;;;;;;15.38;8.82;;;2.30;99.90;;;;;;5075414;28;20288;-91
2020/12/01 04:20:57;;;;;;;13.55;7.78;;;2.40;99.90;;;;;;5078161;28;20280;-89
2020/12/01 04:23:24;;;;;;;15.20;8.32;;;2.40;99.90;;;;;;5074357;28;20232;-89
2020/12/01 04:25:50;;;;;;;14.80;8.43;;;2.40;99.90;;;;;;5075204;28;20265;-88
2020/12/01 04:28:18;;;;;;;21.00;10.13;;;2.40;99.90;;;;;;5075171;28;20201;-89
2020/12/01 04:30:44;;;;;;;14.73;7.20;;;2.40;99.90;;;;;;5072691;28;20201;-87
2020/12/01 04:33:11;;;;;;;13.13;8.68;;;2.40;99.90;;;;;;5055009;28;20248;-86
2020/12/01 04:35:38;;;;;;;15.02;8.43;;;2.30;99.90;;;;;;5054994;28;20297;-85
2020/12/01 04:38:06;;;;;;;11.95;7.20;;;2.40;99.90;;;;;;5070680;28;20204;-86
2020/12/01 04:40:36;;;;;;;14.05;7.75;;;2.40;99.90;;;;;;5075246;28;20209;-89
2020/12/01 04:43:07;;;;;;;14.82;9.00;;;2.40;99.90;;;;;;5072114;28;20649;-87
2020/12/01 04:45:35;;;;;;;13.23;9.00;;;2.40;99.90;;;;;;5068749;28;20240;-87
2020/12/01 04:48:06;;;;;;;11.85;7.43;;;2.40;99.90;;;;;;5073680;28;20201;-89
2020/12/01 04:50:35;;;;;;;15.40;9.10;;;2.40;99.90;;;;;;5075511;28;20635;-93
2020/12/01 04:53:34;;;;;;;16.75;9.50;;;2.40;99.90;;;;;;5072391;28;20289;-95
2020/12/01 04:56:40;;;;;;;12.07;8.13;;;2.40;99.90;;;;;;5089962;28;20194;-94
2020/12/01 04:59:52;;;;;;;17.90;9.30;;;2.40;99.90;;;;;;5011288;28;20197;-94
2020/12/01 05:06:07;;;;;;;13.68;8.30;;;2.40;99.90;;;;;;5081168;22;20248;-92
2020/12/01 05:08:41;;;;;;;13.93;9.23;;;2.40;99.90;;;;;;5073945;28;20289;-92
2020/12/01 05:11:16;;;;;;;15.15;9.05;;;2.40;99.90;;;;;;5074662;28;20205;-88
2020/12/01 05:13:48;;;;;;;37.00;20.50;;;2.50;99.90;;;;;;5074817;28;20208;-85
2020/12/01 05:16:34;;;;;;;25.20;14.30;;;2.40;99.90;;;;;;5073270;28;20213;-84
2020/12/01 05:19:01;;;;;;;20.63;12.18;;;2.50;99.90;;;;;;5054519;28;20202;-84
2020/12/01 05:21:27;;;;;;;17.02;10.13;;;2.60;99.90;;;;;;5054349;28;20285;-88
2020/12/01 05:23:54;;;;;;;15.50;8.27;;;2.60;99.90;;;;;;5004762;28;20198;-85
2020/12/01 05:26:22;;;;;;;20.40;9.05;;;2.60;99.90;;;;;;5055952;28;20229;-88
2020/12/01 05:28:52;;;;;;;16.58;10.80;;;2.70;99.90;;;;;;5054491;28;20245;-89
2020/12/01 05:31:21;;;;;;;16.27;8.65;;;2.70;99.90;;;;;;5053143;28;20285;-91
2020/12/01 05:33:59;;;;;;;16.02;10.43;;;2.70;99.90;;;;;;5066832;28;20641;-89
2020/12/01 05:36:31;;;;;;;15.85;9.63;;;2.70;99.90;;;;;;5074112;28;20672;-91
2020/12/01 05:39:00;;;;;;;22.23;8.98;;;2.70;99.90;;;;;;5074428;28;20225;-92
2020/12/01 05:41:29;;;;;;;14.32;8.35;;;2.80;99.90;;;;;;5074405;28;20201;-92
2020/12/01 05:43:59;;;;;;;21.20;9.27;;;2.60;99.90;;;;;;5073955;28;20276;-95
2020/12/01 05:50:12;;;;;;;15.57;8.27;;;2.60;99.90;;;;;;5047365;28;20211;-93
2020/12/01 05:52:48;;;;;;;15.73;8.73;;;2.70;99.90;;;;;;5030620;28;20234;-93
2020/12/01 05:55:18;;;;;;;15.75;9.07;;;2.60;99.90;;;;;;5037947;28;20195;-93
2020/12/01 05:57:55;;;;;;;25.83;10.80;;;2.60;99.90;;;;;;5033568;28;20231;-89
2020/12/01 06:00:24;;;;;;;16.83;10.15;;;2.60;99.90;;;;;;5024445;28;20267;-91
2020/12/01 06:03:16;;;;;;;22.10;11.82;;;2.60;99.90;;;;;;5017681;28;20227;-90
2020/12/01 06:05:47;;;;;;;16.80;10.05;;;2.60;99.90;;;;;;5008991;28;20257;-91
2020/12/01 06:08:29;;;;;;;20.67;9.70;;;2.60;99.90;;;;;;5011765;28;20207;-89
2020/12/01 06:11:01;;;;;;;20.70;11.45;;;2.60;99.90;;;;;;5011790;28;20261;-89
2020/12/01 06:13:44;;;;;;;18.13;9.93;;;2.60;99.90;;;;;;5022701;28;20297;-88
2020/12/01 06:16:30;;;;;;;24.42;12.98;;;2.60;99.90;;;;;;5066031;28;20202;-88
2020/12/01 06:19:04;;;;;;;24.83;11.50;;;2.60;99.90;;;;;;5073446;28;20601;-88
2020/12/01 06:21:47;;;;;;;39.95;21.20;;;2.50;99.90;;;;;;5073250;28;20201;-87
2020/12/01 06:24:56;;;;;;;21.90;13.65;;;2.50;99.90;;;;;;5072497;28;20197;-88
2020/12/01 06:27:50;;;;;;;21.48;12.00;;;2.60;99.90;;;;;;5073068;28;20235;-87
2020/12/01 06:30:50;;;;;;;19.30;11.10;;;2.60;99.90;;;;;;5071702;28;20212;-88
2020/12/01 06:33:42;;;;;;;21.10;10.27;;;2.60;99.90;;;;;;5013774;28;20284;-88
2020/12/01 06:36:50;;;;;;;22.73;13.38;;;2.70;99.90;;;;;;5066234;28;20608;-88
2020/12/01 06:39:30;;;;;;;16.63;10.48;;;2.70;99.90;;;;;;5070336;28;20259;-88
2020/12/01 06:42:05;;;;;;;21.33;11.15;;;2.70;99.90;;;;;;5072945;28;20631;-88
2020/12/01 06:44:33;;;;;;;18.50;11.82;;;2.70;99.90;;;;;;5065851;28;20228;-87
2020/12/01 06:46:59;;;;;;;24.75;10.93;;;2.60;99.90;;;;;;5072836;28;20239;-87
2020/12/01 06:49:28;;;;;;;23.40;12.70;;;2.60;99.90;;;;;;5072848;28;20821;-88
2020/12/01 06:51:58;;;;;;;17.33;10.63;;;2.60;99.90;;;;;;5072054;28;20240;-88
2020/12/01 06:54:26;;;;;;;20.10;11.80;;;2.60;99.90;;;;;;5069702;28;20205;-89
2020/12/01 06:57:02;;;;;;;17.50;13.02;;;2.60;99.90;;;;;;5073442;28;20213;-89
2020/12/01 06:59:28;;;;;;;22.85;12.25;;;2.60;99.90;;;;;;5072352;28;20205;-88
2020/12/01 07:02:06;;;;;;;21.17;13.00;;;2.60;99.90;;;;;;5068390;28;20239;-88
2020/12/01 07:04:33;;;;;;;21.38;11.63;;;2.60;99.90;;;;;;5071606;28;20227;-89
2020/12/01 07:07:02;;;;;;;23.90;13.70;;;2.70;99.90;;;;;;5071434;28;20305;-88
2020/12/01 07:09:32;;;;;;;21.65;13.30;;;2.60;99.90;;;;;;5069673;28;20309;-88
2020/12/01 07:12:21;;;;;;;21.30;14.40;;;2.60;99.90;;;;;;5070347;28;20225;-89
2020/12/01 07:15:00;;;;;;;23.05;13.43;;;2.60;99.90;;;;;;5071867;28;20205;-86
2020/12/01 07:17:37;;;;;;;26.92;15.60;;;2.70;99.90;;;;;;5072193;28;20693;-86
2020/12/01 07:20:20;;;;;;;29.83;16.70;;;2.70;99.90;;;;;;5073063;28;20201;-86
2020/12/01 07:22:54;;;;;;;26.58;15.43;;;2.70;99.90;;;;;;5073755;28;20323;-88
2020/12/01 07:25:31;;;;;;;26.05;15.82;;;2.70;99.90;;;;;;5074222;28;20299;-88
2020/12/01 07:28:14;;;;;;;21.08;16.20;;;2.70;99.90;;;;;;5077445;28;20211;-89
2020/12/01 07:30:57;;;;;;;26.77;17.40;;;2.70;99.90;;;;;;5074760;28;20640;-90
2020/12/01 07:33:30;;;;;;;25.90;16.40;;;2.70;99.90;;;;;;5073993;28;20197;-88
2020/12/01 07:36:11;;;;;;;21.42;15.43;;;2.70;99.90;;;;;;5053617;28;20206;-88
2020/12/01 07:38:40;;;;;;;22.52;12.50;;;2.60;99.90;;;;;;5065452;28;20199;-88
2020/12/01 07:41:23;;;;;;;26.08;14.38;;;2.60;99.90;;;;;;5072766;28;20206;-89
2020/12/01 07:44:01;;;;;;;20.23;10.60;;;2.60;99.90;;;;;;5069777;28;20674;-88
2020/12/01 07:46:28;;;;;;;17.90;12.00;;;2.60;99.90;;;;;;5073333;28;20245;-88
2020/12/01 07:49:00;;;;;;;27.42;13.50;;;2.50;99.90;;;;;;5054493;28;20198;-88
2020/12/01 07:51:32;;;;;;;19.85;13.77;;;2.60;99.90;;;;;;5058441;28;20262;-88
2020/12/01 07:54:02;;;;;;;28.35;17.17;;;2.60;99.90;;;;;;5057822;28;20240;-89
2020/12/01 07:56:30;;;;;;;19.17;11.88;;;2.60;99.90;;;;;;5059494;28;20217;-89
2020/12/01 07:59:07;;;;;;;21.35;12.50;;;2.50;99.90;;;;;;5061667;28;20245;-89
2020/12/01 08:01:33;;;;;;;22.90;13.05;;;2.50;99.90;;;;;;5066388;28;20212;-90
2020/12/01 08:04:13;;;;;;;19.67;12.38;;;2.70;99.90;;;;;;5070924;28;20256;-91
2020/12/01 08:12:35;;;;;;;20.52;13.10;;;2.70;99.90;;;;;;5099840;22;20307;-90
2020/12/01 08:15:21;;;;;;;21.65;14.27;;;2.80;99.90;;;;;;5108772;22;20240;-90
2020/12/01 08:17:56;;;;;;;17.77;12.20;;;2.70;99.90;;;;;;5092583;28;20232;-89
2020/12/01 08:23:21;;;;;;;19.30;13.23;;;2.90;99.90;;;;;;5465523;22;20230;-87
2020/12/01 08:25:57;;;;;;;19.67;11.35;;;2.80;99.90;;;;;;5105100;28;20241;-88
2020/12/01 08:38:42;;;;;;;24.05;14.35;;;2.90;99.90;;;;;;5106095;28;20196;-89
2020/12/01 08:50:16;;;;;;;23.23;14.00;;;2.90;99.90;;;;;;5621354;22;20237;-91
2020/12/01 09:20:16;;;;;;;25.67;15.57;;;2.90;99.90;;;;;;5216671;23;20229;-90
2020/12/01 09:26:17;;;;;;;20.73;13.80;;;3.00;99.90;;;;;;4951136;28;20237;-87
2020/12/01 09:28:48;;;;;;;22.85;11.93;;;3.00;99.90;;;;;;5044531;28;20271;-85
2020/12/01 09:31:15;;;;;;;25.48;15.00;;;2.80;99.90;;;;;;5054713;28;20229;-84
2020/12/01 09:33:41;;;;;;;35.97;21.30;;;2.90;99.90;;;;;;5054241;28;20206;-84
2020/12/01 09:36:14;;;;;;;28.70;17.10;;;3.00;99.90;;;;;;5054064;28;20671;-85
2020/12/01 09:38:41;;;;;;;21.70;15.20;;;3.00;99.90;;;;;;5054405;28;20662;-86
2020/12/01 09:41:12;;;;;;;20.67;14.73;;;3.00;99.90;;;;;;5074878;28;20236;-87
2020/12/01 09:43:41;;;;;;;19.48;12.57;;;3.00;99.90;;;;;;5074303;28;20581;-86
2020/12/01 09:46:12;;;;;;;19.38;13.68;;;3.00;99.90;;;;;;5072959;28;20638;-85
2020/12/01 09:48:40;;;;;;;21.23;14.20;;;2.90;99.90;;;;;;5074187;28;20194;-86
2020/12/01 09:51:08;;;;;;;30.92;19.67;;;3.00;99.90;;;;;;5075324;28;20286;-88
2020/12/01 09:53:43;;;;;;;29.30;17.45;;;3.10;99.90;;;;;;5074504;28;20213;-87
2020/12/01 09:56:16;;;;;;;26.02;17.00;;;3.10;99.90;;;;;;5054860;28;20209;-87
2020/12/01 10:10:08;;;;;;;30.38;21.50;;;3.30;99.90;;;;;;5060490;28;20706;-84
2020/12/01 10:35:57;;;;;;;12.77;8.65;;;3.70;99.90;;;;;;5058172;22;20242;-92
2020/12/01 10:43:52;;;;;;;17.10;9.60;;;3.60;99.90;;;;;;5064768;22;20230;-91
2020/12/01 10:47:17;;;;;;;18.13;9.85;;;3.50;99.90;;;;;;5073837;28;20221;-91
2020/12/01 10:56:06;;;;;;;15.20;10.70;;;3.40;99.90;;;;;;5060361;22;20447;-92
2020/12/01 10:58:47;;;;;;;21.95;13.88;;;3.20;99.90;;;;;;4992655;28;20444;-92
2020/12/01 11:04:33;;;;;;;14.90;8.82;;;3.30;99.90;;;;;;4887497;29;20248;-92
2020/12/01 11:07:00;;;;;;;14.05;9.32;;;3.40;99.90;;;;;;4934037;29;20329;-90
2020/12/01 11:09:26;;;;;;;17.17;10.02;;;3.50;99.90;;;;;;4935026;29;20785;-90
2020/12/01 11:11:54;;;;;;;18.13;12.35;;;3.40;99.90;;;;;;4933818;29;20697;-90
2020/12/01 11:14:20;;;;;;;16.50;9.15;;;3.40;99.90;;;;;;4932054;29;20225;-90
2020/12/01 11:16:47;;;;;;;13.40;9.50;;;3.30;99.90;;;;;;4953908;28;20239;-90
2020/12/01 11:19:13;;;;;;;18.88;9.95;;;3.30;99.90;;;;;;4998747;28;20234;-90
2020/12/01 11:21:40;;;;;;;14.07;8.50;;;3.20;99.90;;;;;;5035338;28;20207;-91
2020/12/01 11:24:06;;;;;;;14.50;8.20;;;3.20;99.90;;;;;;5052604;28;20206;-91
2020/12/01 11:26:33;;;;;;;11.05;7.43;;;3.30;99.90;;;;;;5052552;28;20662;-90
2020/12/01 11:29:00;;;;;;;14.23;8.35;;;3.20;99.90;;;;;;5052655;28;20249;-91
2020/12/01 11:31:27;;;;;;;11.85;8.20;;;3.20;99.90;;;;;;5053804;28;20214;-91
2020/12/01 11:34:00;;;;;;;12.23;7.72;;;3.20;99.90;;;;;;5053392;28;20225;-90
2020/12/01 11:36:46;;;;;;;11.40;8.07;;;3.20;99.90;;;;;;5055061;28;20216;-92
2020/12/01 11:46:02;;;;;;;10.43;6.55;;;3.30;99.90;;;;;;4966255;28;20327;-91
2020/12/01 11:48:28;;;;;;;12.90;7.20;;;3.20;99.90;;;;;;5030417;28;20211;-90
2020/12/01 11:50:55;;;;;;;16.25;10.20;;;3.20;99.90;;;;;;5037899;28;20260;-92
2020/12/01 11:53:22;;;;;;;18.27;9.85;;;3.20;99.90;;;;;;5038086;28;20709;-91
2020/12/01 11:55:51;;;;;;;15.38;8.60;;;3.20;99.90;;;;;;5056650;28;20612;-91
2020/12/01 11:58:19;;;;;;;14.82;10.25;;;3.20;99.90;;;;;;5057277;28;20202;-91
2020/12/01 12:00:52;;;;;;;16.60;11.35;;;3.30;99.90;;;;;;5057659;28;20213;-92
2020/12/01 12:03:19;;;;;;;18.00;11.95;;;3.30;99.90;;;;;;5059803;28;20213;-90
2020/12/01 12:05:45;;;;;;;19.98;12.95;;;3.20;99.90;;;;;;5057541;28;20254;-91
2020/12/01 12:08:12;;;;;;;19.95;13.05;;;3.30;99.90;;;;;;5060849;28;20206;-90
2020/12/01 12:10:38;;;;;;;27.60;13.73;;;3.30;99.90;;;;;;5057100;28;20213;-89
2020/12/01 12:13:05;;;;;;;20.52;14.10;;;3.20;99.90;;;;;;5056745;28;20302;-89
2020/12/01 12:15:31;;;;;;;21.50;13.55;;;3.20;99.90;;;;;;5056806;28;20305;-89
2020/12/01 12:17:57;;;;;;;22.63;12.85;;;3.20;99.90;;;;;;5060280;28;20292;-89
2020/12/01 12:20:25;;;;;;;19.75;12.18;;;3.30;99.90;;;;;;5062140;28;20293;-90
2020/12/01 12:22:51;;;;;;;13.50;9.20;;;3.30;99.90;;;;;;5062676;28;20206;-89
2020/12/01 12:25:17;;;;;;;15.40;10.07;;;3.20;99.90;;;;;;5062189;28;20242;-89
2020/12/01 12:27:44;;;;;;;12.50;9.90;;;3.30;99.90;;;;;;5062887;28;20276;-88
2020/12/01 12:30:10;;;;;;;18.38;11.20;;;3.30;99.90;;;;;;5059291;28;20225;-88
2020/12/01 12:32:37;;;;;;;16.95;10.43;;;3.40;99.90;;;;;;5057135;28;20234;-88
2020/12/01 12:35:03;;;;;;;18.15;10.13;;;3.40;99.90;;;;;;5056836;28;20214;-88
2020/12/01 12:37:31;;;;;;;14.50;9.40;;;3.40;99.90;;;;;;5057887;28;20264;-89
2020/12/01 12:39:57;;;;;;;14.35;10.07;;;3.40;99.90;;;;;;5059995;28;20285;-89
2020/12/01 12:42:24;;;;;;;17.25;10.18;;;3.30;99.90;;;;;;5058809;28;20654;-90
2020/12/01 12:44:50;;;;;;;15.05;11.65;;;3.30;99.90;;;;;;5057696;28;20206;-90
2020/12/01 12:47:17;;;;;;;16.77;10.60;;;3.20;99.90;;;;;;5077655;28;20245;-89
2020/12/01 12:49:43;;;;;;;14.02;8.95;;;3.30;99.90;;;;;;5079066;28;20206;-90
2020/12/01 12:52:09;;;;;;;17.80;9.40;;;3.40;99.90;;;;;;5075513;28;20217;-90
2020/12/01 12:54:40;;;;;;;13.23;9.38;;;3.30;99.90;;;;;;5075767;28;20736;-89
2020/12/01 12:57:07;;;;;;;15.38;9.50;;;3.40;99.90;;;;;;5082007;28;20233;-90
2020/12/01 12:59:34;;;;;;;14.27;8.77;;;3.40;99.90;;;;;;5081769;28;20717;-90
2020/12/01 13:04:29;;;;;;;14.70;9.83;;;3.50;99.90;;;;;;5431275;22;20240;-89
2020/12/01 13:06:56;;;;;;;18.90;9.10;;;3.50;99.90;;;;;;5099561;28;20236;-88
2020/12/01 13:09:23;;;;;;;14.73;8.93;;;3.50;99.90;;;;;;5097950;28;20711;-89
2020/12/01 13:11:53;;;;;;;12.73;7.72;;;3.60;99.90;;;;;;5086950;28;20622;-89
2020/12/01 13:14:24;;;;;;;13.40;8.77;;;3.50;99.90;;;;;;5073534;28;20201;-88
2020/12/01 13:16:54;;;;;;;13.85;10.10;;;3.50;99.90;;;;;;5074458;28;20209;-88
2020/12/01 13:19:21;;;;;;;15.35;10.77;;;3.40;99.90;;;;;;5074679;28;20524;-87
2020/12/01 13:21:48;;;;;;;15.90;10.43;;;3.40;99.90;;;;;;5074651;28;20213;-87
2020/12/01 13:24:15;;;;;;;17.58;9.10;;;3.30;99.90;;;;;;5073622;28;20209;-87
2020/12/01 13:26:41;;;;;;;18.20;10.20;;;3.30;99.90;;;;;;5075171;28;20229;-92
2020/12/01 13:29:12;;;;;;;13.52;9.30;;;3.40;99.90;;;;;;5074763;28;20847;-86
2020/12/01 13:31:39;;;;;;;16.55;11.57;;;3.30;99.90;;;;;;5074170;28;20304;-86
2020/12/01 13:34:05;;;;;;;18.25;11.00;;;3.30;99.90;;;;;;5073558;28;20653;-87
2020/12/01 13:36:32;;;;;;;12.90;9.27;;;3.30;99.90;;;;;;5073740;28;20205;-86
2020/12/01 13:38:58;;;;;;;18.35;9.25;;;3.20;99.90;;;;;;5073977;28;20210;-86
2020/12/01 13:41:25;;;;;;;15.52;9.90;;;3.20;99.90;;;;;;5073645;28;20209;-86
2020/12/01 13:43:51;;;;;;;14.38;9.23;;;3.20;99.90;;;;;;5074186;28;20580;-87
2020/12/01 13:46:18;;;;;;;15.90;9.00;;;3.30;99.90;;;;;;5073124;28;20286;-86
2020/12/01 13:48:46;;;;;;;11.68;8.73;;;3.30;99.90;;;;;;5073693;28;20209;-88
2020/12/01 13:51:13;;;;;;;17.92;10.55;;;3.30;99.90;;;;;;5074126;28;20649;-88
2020/12/01 13:53:40;;;;;;;13.07;7.80;;;3.30;99.90;;;;;;5073935;28;20212;-90
2020/12/01 13:56:07;;;;;;;10.93;7.75;;;3.30;99.90;;;;;;5074043;28;20267;-89
2020/12/01 13:58:33;;;;;;;9.35;7.50;;;3.30;99.90;;;;;;5073977;28;20209;-88
2020/12/01 14:01:00;;;;;;;10.48;7.32;;;3.30;99.90;;;;;;5072927;28;20279;-87
2020/12/01 14:03:27;;;;;;;13.43;6.80;;;3.30;99.90;;;;;;5064338;28;20249;-87
2020/12/01 14:05:54;;;;;;;13.80;8.63;;;3.30;99.90;;;;;;5073834;28;20706;-87
2020/12/01 14:08:20;;;;;;;11.13;7.47;;;3.20;99.90;;;;;;5073367;28;20656;-89
2020/12/01 14:10:47;;;;;;;9.00;5.97;;;3.20;99.90;;;;;;5073698;28;20213;-88
2020/12/01 14:13:14;;;;;;;11.25;7.82;;;3.30;99.90;;;;;;5073690;28;20205;-88
2020/12/01 14:15:41;;;;;;;7.55;6.45;;;3.30;99.90;;;;;;5069341;28;20625;-89
2020/12/01 14:18:07;;;;;;;19.48;8.45;;;3.30;99.90;;;;;;5069633;28;20644;-88
2020/12/01 14:20:35;;;;;;;12.00;7.72;;;3.30;99.90;;;;;;5073305;28;20206;-86
2020/12/01 14:23:01;;;;;;;17.10;10.63;;;3.30;99.90;;;;;;5073217;28;20697;-87
2020/12/01 14:25:28;;;;;;;11.90;8.80;;;3.20;99.90;;;;;;5073403;28;20708;-86
2020/12/01 14:27:54;;;;;;;10.90;8.70;;;3.30;99.90;;;;;;5073271;28;20598;-86
2020/12/01 14:30:22;;;;;;;12.55;7.40;;;3.30;99.90;;;;;;5072248;28;20232;-82
2020/12/01 14:32:49;;;;;;;12.57;10.05;;;3.30;99.90;;;;;;5072862;28;20661;-86
2020/12/01 14:35:17;;;;;;;12.40;8.85;;;3.20;99.90;;;;;;5073053;28;20259;-87
2020/12/01 14:37:45;;;;;;;9.75;7.72;;;3.20;99.90;;;;;;5069113;28;20225;-86
2020/12/01 14:40:13;;;;;;;11.85;8.18;;;3.30;99.90;;;;;;5068761;28;20290;-87
2020/12/01 14:42:40;;;;;;;15.43;8.85;;;3.20;99.90;;;;;;5072675;28;20210;-87
2020/12/01 14:45:08;;;;;;;9.35;6.78;;;3.20;99.90;;;;;;5072276;28;20221;-87
2020/12/01 14:48:12;;;;;;;10.00;7.20;;;3.20;99.90;;;;;;5073103;28;20232;-88
2020/12/01 14:51:10;;;;;;;8.75;6.60;;;3.20;99.90;;;;;;5072948;28;20205;-89
2020/12/01 14:53:44;;;;;;;12.23;8.02;;;3.10;99.90;;;;;;5073156;28;20232;-86
2020/12/01 14:56:25;;;;;;;33.85;18.08;;;3.10;99.90;;;;;;5072445;28;20676;-86
2020/12/01 14:59:07;;;;;;;36.53;22.60;;;3.50;99.90;;;;;;5072702;28;20224;-85
2020/12/01 15:01:43;;;;;;;18.35;11.80;;;3.00;99.90;;;;;;5071801;28;20664;-87
2020/12/01 15:04:38;;;;;;;14.82;9.15;;;3.00;99.90;;;;;;5072509;28;20328;-87
2020/12/01 15:07:31;;;;;;;14.57;8.60;;;3.00;99.90;;;;;;5092844;28;20315;-85
2020/12/01 15:10:17;;;;;;;13.35;9.57;;;3.00;99.90;;;;;;5092694;28;20254;-88
2020/12/01 15:12:47;;;;;;;16.77;10.90;;;3.00;99.90;;;;;;5093269;28;20304;-83